Time;durP1;ratioP1;P1;durP2;ratioP2;P2;SDS_P1;SDS_P2;PMS_P1;PMS_P2;Temp;Humidity;BMP_temperature;BMP_pressure;BME280_temperature;BME280_humidity;BME280_pressure;Samples;Min_cycle;Max_cycle;Signal;HPM_P1;HPM_P2
2022/12/27 00:00:22;;;;;;;13.68;3.25;;;4.50;99.90;;;;;;5117642;27;20140;-45
2022/12/27 00:02:49;;;;;;;9.35;2.90;;;4.60;99.90;;;;;;5123182;27;20047;-46
2022/12/27 00:05:16;;;;;;;15.95;2.20;;;4.60;99.90;;;;;;5123223;27;20046;-45
2022/12/27 00:07:43;;;;;;;11.68;2.50;;;4.60;99.90;;;;;;5104558;27;20047;-47
2022/12/27 00:10:09;;;;;;;7.55;2.28;;;4.60;99.90;;;;;;5127641;27;20039;-46
2022/12/27 00:12:35;;;;;;;11.93;2.92;;;4.60;99.90;;;;;;5103647;27;20047;-48
2022/12/27 00:15:01;;;;;;;19.00;2.85;;;4.60;99.90;;;;;;5095418;27;20065;-45
2022/12/27 00:17:27;;;;;;;11.68;2.10;;;4.50;99.90;;;;;;5117233;27;20082;-49
2022/12/27 00:19:53;;;;;;;15.27;2.10;;;4.50;99.90;;;;;;5116182;27;20150;-45
2022/12/27 00:22:18;;;;;;;12.27;2.63;;;4.40;99.90;;;;;;5115012;27;20035;-44
2022/12/27 00:24:44;;;;;;;15.90;3.65;;;4.40;99.90;;;;;;5121583;27;20039;-47
2022/12/27 00:27:10;;;;;;;15.95;3.03;;;4.40;99.90;;;;;;5080853;27;20043;-45
2022/12/27 00:29:35;;;;;;;12.63;2.67;;;4.40;99.90;;;;;;5115326;27;20147;-49
2022/12/27 00:32:01;;;;;;;13.75;2.80;;;4.30;99.90;;;;;;5115468;27;20042;-47
2022/12/27 00:34:27;;;;;;;10.35;2.42;;;4.30;99.90;;;;;;5115808;27;20557;-48
2022/12/27 00:36:52;;;;;;;13.10;3.45;;;4.30;99.90;;;;;;5121935;27;20043;-47
2022/12/27 00:39:18;;;;;;;9.65;2.58;;;4.20;99.90;;;;;;5115759;27;20047;-46
2022/12/27 00:41:44;;;;;;;13.77;2.78;;;4.20;99.90;;;;;;5114622;27;20039;-48
2022/12/27 00:44:09;;;;;;;9.15;3.03;;;4.20;99.90;;;;;;5127335;27;20471;-45
2022/12/27 00:46:35;;;;;;;13.10;2.67;;;4.20;99.90;;;;;;5116480;27;20054;-45
2022/12/27 00:49:01;;;;;;;16.33;2.58;;;4.10;99.90;;;;;;5129524;27;20050;-45
2022/12/27 00:51:27;;;;;;;11.57;2.80;;;4.10;99.90;;;;;;5134978;27;20142;-47
2022/12/27 00:53:53;;;;;;;8.70;2.47;;;4.20;99.90;;;;;;5115661;27;20059;-45
2022/12/27 00:56:22;;;;;;;11.40;2.05;;;4.20;99.90;;;;;;5121475;27;20381;-46
2022/12/27 00:58:53;;;;;;;14.80;2.70;;;4.20;99.90;;;;;;5117398;27;20366;-46
2022/12/27 01:01:20;;;;;;;11.60;2.40;;;4.30;99.90;;;;;;5114576;27;20062;-46
2022/12/27 01:03:46;;;;;;;12.23;2.15;;;4.30;99.90;;;;;;5114804;27;20103;-44
2022/12/27 01:06:18;;;;;;;13.50;2.30;;;4.30;99.90;;;;;;5125550;27;20589;-45
2022/12/27 01:08:45;;;;;;;11.95;2.22;;;4.30;99.90;;;;;;5113925;27;20047;-48
2022/12/27 01:11:11;;;;;;;19.15;2.70;;;4.30;99.90;;;;;;5115079;27;20237;-44
2022/12/27 01:13:38;;;;;;;7.75;2.30;;;4.30;99.90;;;;;;5127566;27;20043;-49
2022/12/27 01:16:12;;;;;;;11.48;2.08;;;4.40;99.90;;;;;;5131916;27;20055;-49
2022/12/27 01:18:38;;;;;;;15.93;2.63;;;4.40;99.90;;;;;;5121792;27;20450;-46
2022/12/27 01:21:10;;;;;;;13.55;2.42;;;4.30;99.90;;;;;;5117092;27;20042;-46
2022/12/27 01:23:37;;;;;;;10.18;2.33;;;4.30;99.90;;;;;;5125825;27;20047;-44
2022/12/27 01:26:09;;;;;;;11.85;2.38;;;4.40;99.90;;;;;;5096706;28;20096;-47
2022/12/27 01:28:35;;;;;;;7.40;2.10;;;4.40;99.90;;;;;;5126498;27;20042;-46
2022/12/27 01:31:05;;;;;;;10.48;2.47;;;4.30;99.90;;;;;;5097013;28;20421;-45
2022/12/27 01:33:31;;;;;;;15.82;3.00;;;4.30;99.90;;;;;;5115156;27;20381;-44
2022/12/27 01:35:57;;;;;;;14.88;2.30;;;4.20;99.90;;;;;;5114938;27;20047;-48
2022/12/27 01:38:22;;;;;;;20.00;2.85;;;4.20;99.90;;;;;;5115861;27;20047;-46
2022/12/27 01:40:48;;;;;;;13.63;2.55;;;4.20;99.90;;;;;;5120268;27;20115;-47
2022/12/27 01:43:18;;;;;;;7.20;1.85;;;4.20;99.90;;;;;;5129419;27;20123;-46
2022/12/27 01:45:46;;;;;;;12.05;3.08;;;4.20;99.90;;;;;;5125043;27;20073;-45
2022/12/27 01:48:16;;;;;;;14.70;2.92;;;4.10;99.90;;;;;;5125105;27;20396;-44
2022/12/27 01:50:44;;;;;;;11.27;2.97;;;4.10;99.90;;;;;;5126103;27;20039;-49
2022/12/27 01:53:28;;;;;;;17.00;3.33;;;4.20;99.90;;;;;;5099432;27;20855;-48
2022/12/27 01:56:01;;;;;;;11.07;3.78;;;4.20;99.90;;;;;;5118182;27;20183;-46
2022/12/27 01:58:48;;;;;;;11.80;2.90;;;4.30;99.90;;;;;;5117884;27;20043;-49
2022/12/27 02:01:23;;;;;;;16.05;2.92;;;4.40;99.90;;;;;;5114581;27;20541;-44
2022/12/27 02:04:11;;;;;;;13.30;2.83;;;4.40;99.90;;;;;;5126712;27;20401;-46
2022/12/27 02:06:38;;;;;;;9.93;2.20;;;4.60;99.90;;;;;;5134221;27;20081;-48
2022/12/27 02:09:13;;;;;;;8.55;2.30;;;4.60;99.90;;;;;;5117620;27;20051;-46
2022/12/27 02:11:51;;;;;;;9.68;2.17;;;4.60;99.90;;;;;;5101583;27;20039;-49
2022/12/27 02:14:44;;;;;;;16.27;2.85;;;4.60;99.90;;;;;;5128907;27;20051;-46
2022/12/27 02:17:15;;;;;;;12.88;2.88;;;4.60;99.90;;;;;;5114873;27;20126;-44
2022/12/27 02:19:40;;;;;;;11.07;2.90;;;4.50;99.90;;;;;;5130609;27;20728;-47
2022/12/27 02:25:27;;;;;;;14.23;3.28;;;4.50;99.90;;;;;;5124129;27;20530;-48
2022/12/27 02:28:30;;;;;;;15.43;3.42;;;4.60;99.90;;;;;;5123693;27;20305;-47
2022/12/27 02:31:06;;;;;;;9.27;2.00;;;4.60;99.90;;;;;;5132793;27;20043;-48
2022/12/27 02:33:38;;;;;;;8.30;1.60;;;4.40;99.90;;;;;;5121520;27;20066;-45
2022/12/27 02:36:09;;;;;;;9.95;1.75;;;4.30;99.90;;;;;;5107156;27;20046;-49
2022/12/27 02:38:43;;;;;;;10.05;2.22;;;4.20;99.90;;;;;;5138361;27;20034;-46
2022/12/27 02:59:03;;;;;;;13.50;3.60;;;4.20;99.90;;;;;;5130985;27;20055;-49
2022/12/27 03:04:42;;;;;;;12.52;3.25;;;4.20;99.90;;;;;;5121255;27;20074;-46
2022/12/27 03:07:22;;;;;;;9.32;1.92;;;4.20;99.90;;;;;;5105331;27;20571;-46
2022/12/27 03:16:55;;;;;;;11.45;2.20;;;4.10;99.90;;;;;;5095637;27;20074;-49
2022/12/27 03:25:29;;;;;;;13.32;3.00;;;4.30;99.90;;;;;;5116141;27;20098;-44
2022/12/27 03:33:46;;;;;;;15.27;2.53;;;4.10;99.90;;;;;;5114990;27;20422;-48
2022/12/27 03:39:19;;;;;;;12.88;3.05;;;4.10;99.90;;;;;;5112276;27;20046;-48
2022/12/27 03:44:56;;;;;;;10.88;2.30;;;4.00;99.90;;;;;;5095724;27;20081;-47
2022/12/27 03:47:42;;;;;;;16.98;3.33;;;4.10;99.90;;;;;;5124282;27;20493;-50
2022/12/27 03:50:13;;;;;;;12.73;2.70;;;4.10;99.90;;;;;;5107346;27;20052;-47
2022/12/27 03:52:55;;;;;;;15.00;2.63;;;4.10;99.90;;;;;;5124188;27;20131;-47
2022/12/27 03:55:21;;;;;;;11.10;3.00;;;4.20;99.90;;;;;;5096204;27;20389;-46
2022/12/27 03:57:47;;;;;;;15.55;2.75;;;4.10;99.90;;;;;;5117839;27;20038;-47
2022/12/27 04:00:13;;;;;;;8.80;2.13;;;4.10;99.90;;;;;;5114588;27;20422;-46
2022/12/27 04:02:39;;;;;;;18.30;3.45;;;4.10;99.90;;;;;;5125723;27;20034;-48
2022/12/27 04:05:06;;;;;;;11.45;2.33;;;4.00;99.90;;;;;;5108179;27;20059;-49
2022/12/27 04:07:31;;;;;;;14.80;2.70;;;4.00;99.90;;;;;;5114301;27;20035;-48
2022/12/27 04:34:42;;;;;;;7.78;2.33;;;4.10;99.90;;;;;;5121523;27;20509;-47
2022/12/27 04:37:26;;;;;;;9.05;2.25;;;4.00;99.90;;;;;;5118716;27;20098;-47
2022/12/27 04:56:27;;;;;;;16.80;2.85;;;3.90;99.90;;;;;;5116889;27;20468;-44
2022/12/27 05:04:23;;;;;;;21.10;3.60;;;4.00;99.90;;;;;;5123274;27;20129;-46
2022/12/27 05:06:48;;;;;;;11.93;2.67;;;4.10;99.90;;;;;;5108402;27;20430;-45
2022/12/27 05:14:42;;;;;;;15.82;2.85;;;4.20;99.90;;;;;;5123971;27;20078;-45
2022/12/27 05:17:08;;;;;;;14.38;3.17;;;4.30;99.90;;;;;;5139450;27;20126;-47
2022/12/27 05:19:34;;;;;;;12.15;2.75;;;4.30;99.90;;;;;;5101053;27;20043;-47
2022/12/27 05:27:28;;;;;;;13.00;3.35;;;4.20;99.90;;;;;;5122259;27;20231;-46
2022/12/27 05:29:54;;;;;;;11.93;2.92;;;4.20;99.90;;;;;;5117318;27;21354;-45
2022/12/27 05:32:19;;;;;;;11.73;2.85;;;4.20;99.90;;;;;;5122322;27;20134;-47
2022/12/27 05:34:45;;;;;;;13.25;2.38;;;4.30;99.90;;;;;;5109559;27;20054;-49
2022/12/27 05:37:10;;;;;;;15.43;3.20;;;4.30;99.90;;;;;;5123295;27;20058;-47
2022/12/27 05:39:36;;;;;;;13.23;2.55;;;4.20;99.90;;;;;;5115768;27;20043;-47
2022/12/27 05:42:02;;;;;;;8.98;2.97;;;4.20;99.90;;;;;;5118641;27;20487;-45
2022/12/27 05:44:28;;;;;;;11.73;2.08;;;4.20;99.90;;;;;;5117766;27;20091;-47
2022/12/27 05:46:54;;;;;;;9.18;2.22;;;4.20;99.90;;;;;;5116680;27;20047;-48
2022/12/27 05:49:20;;;;;;;10.60;2.70;;;4.10;99.90;;;;;;5098236;27;20043;-44
2022/12/27 05:51:46;;;;;;;12.48;2.80;;;4.10;99.90;;;;;;5117511;27;20042;-46
2022/12/27 05:54:11;;;;;;;13.43;2.20;;;4.10;99.90;;;;;;5118726;27;20400;-44
2022/12/27 05:56:37;;;;;;;10.13;2.15;;;4.10;99.90;;;;;;5118103;27;20449;-45
2022/12/27 05:59:04;;;;;;;8.63;2.28;;;4.00;99.90;;;;;;5123637;27;20038;-44
2022/12/27 06:01:30;;;;;;;13.25;2.83;;;3.90;99.90;;;;;;5122301;27;20035;-47
2022/12/27 06:03:55;;;;;;;10.70;2.42;;;3.80;99.90;;;;;;5119257;27;20050;-50
2022/12/27 06:06:21;;;;;;;9.40;2.20;;;3.80;99.90;;;;;;5134261;27;20543;-46
2022/12/27 06:08:47;;;;;;;15.70;2.55;;;3.60;99.90;;;;;;5123472;27;20074;-45
2022/12/27 06:11:16;;;;;;;11.82;2.20;;;3.60;99.90;;;;;;5116467;27;20050;-44
2022/12/27 06:13:43;;;;;;;8.95;2.45;;;3.50;99.90;;;;;;5105232;27;20078;-45
2022/12/27 06:16:11;;;;;;;19.60;3.97;;;3.50;99.90;;;;;;5121175;27;20042;-46
2022/12/27 06:18:38;;;;;;;12.27;3.20;;;3.60;99.90;;;;;;5127583;27;20050;-45
2022/12/27 06:21:05;;;;;;;19.30;3.50;;;3.50;99.90;;;;;;5119318;27;20039;-48
2022/12/27 06:23:33;;;;;;;23.70;4.35;;;3.50;99.90;;;;;;5134821;27;20047;-47
2022/12/27 06:26:04;;;;;;;13.50;2.63;;;3.40;99.90;;;;;;5135412;27;20046;-45
2022/12/27 06:28:30;;;;;;;11.93;2.65;;;3.40;99.90;;;;;;5116265;27;20449;-48
2022/12/27 06:30:58;;;;;;;17.00;3.28;;;3.20;99.90;;;;;;5098419;27;20050;-45
2022/12/27 06:33:23;;;;;;;14.55;3.50;;;3.30;99.90;;;;;;5136920;27;20340;-45
2022/12/27 06:35:49;;;;;;;17.02;3.28;;;3.20;99.90;;;;;;5124200;27;20130;-45
2022/12/27 06:38:14;;;;;;;12.90;3.42;;;3.20;99.90;;;;;;5132744;27;20039;-49
2022/12/27 06:40:40;;;;;;;17.85;2.97;;;3.10;99.90;;;;;;5118973;27;20046;-45
2022/12/27 06:43:06;;;;;;;17.15;3.50;;;3.10;99.90;;;;;;5128374;27;20039;-48
2022/12/27 06:45:31;;;;;;;20.27;3.45;;;3.00;99.90;;;;;;5137003;27;20115;-45
2022/12/27 06:47:57;;;;;;;17.40;3.78;;;3.00;99.90;;;;;;5132462;27;20458;-47
2022/12/27 06:50:23;;;;;;;20.17;3.20;;;2.90;99.90;;;;;;5130335;27;20269;-44
2022/12/27 06:52:48;;;;;;;15.57;3.58;;;2.80;99.90;;;;;;5138354;27;20038;-47
2022/12/27 06:55:14;;;;;;;13.40;2.95;;;2.80;99.90;;;;;;5118504;27;20047;-46
2022/12/27 06:57:40;;;;;;;12.38;4.50;;;2.70;99.90;;;;;;5117346;27;20489;-46
2022/12/27 07:00:06;;;;;;;16.15;3.20;;;2.80;99.90;;;;;;5117485;27;20222;-46
2022/12/27 07:02:32;;;;;;;12.48;3.38;;;2.80;99.90;;;;;;5117562;27;20112;-46
2022/12/27 07:04:57;;;;;;;17.92;2.92;;;2.70;99.90;;;;;;5132922;27;20038;-46
2022/12/27 07:07:23;;;;;;;14.05;3.03;;;2.70;99.90;;;;;;5126273;27;20463;-49
2022/12/27 07:09:49;;;;;;;12.68;3.15;;;2.80;99.90;;;;;;5115922;27;20042;-45
2022/12/27 07:12:14;;;;;;;19.98;3.55;;;2.70;99.90;;;;;;5122566;27;20683;-44
2022/12/27 07:14:40;;;;;;;15.10;4.20;;;2.80;99.90;;;;;;5097534;27;20051;-44
2022/12/27 07:17:06;;;;;;;18.17;3.90;;;2.80;99.90;;;;;;5099020;27;20427;-45
2022/12/27 07:19:31;;;;;;;18.50;4.00;;;2.90;99.90;;;;;;5099191;27;20125;-50
2022/12/27 07:21:57;;;;;;;15.90;3.50;;;2.90;99.90;;;;;;5123032;27;20239;-47
2022/12/27 07:24:22;;;;;;;18.08;3.88;;;2.80;99.90;;;;;;5122356;27;20059;-44
2022/12/27 07:26:48;;;;;;;13.65;3.30;;;2.80;99.90;;;;;;5124698;27;20043;-46
2022/12/27 07:29:14;;;;;;;13.93;3.53;;;2.70;99.90;;;;;;5117045;27;20127;-46
2022/12/27 07:31:40;;;;;;;15.63;3.70;;;2.80;99.90;;;;;;5115964;27;20077;-45
2022/12/27 07:34:05;;;;;;;19.80;3.58;;;2.80;99.90;;;;;;5116859;27;20477;-45
2022/12/27 07:36:35;;;;;;;13.90;3.95;;;2.90;99.90;;;;;;5111278;27;20080;-47
2022/12/27 07:39:02;;;;;;;13.65;3.92;;;2.90;99.90;;;;;;5116820;27;20486;-47
2022/12/27 07:41:27;;;;;;;22.10;4.30;;;2.80;99.90;;;;;;5111701;27;20050;-47
2022/12/27 07:43:53;;;;;;;15.50;3.28;;;2.80;99.90;;;;;;5129079;27;20043;-50
2022/12/27 07:46:22;;;;;;;14.90;4.35;;;2.80;99.90;;;;;;5130175;27;20703;-49
2022/12/27 07:48:48;;;;;;;17.08;3.92;;;2.70;99.90;;;;;;5105223;27;20039;-50
2022/12/27 07:51:16;;;;;;;21.17;3.55;;;2.70;99.90;;;;;;5123147;27;20039;-46
2022/12/27 07:53:42;;;;;;;13.85;3.75;;;2.80;99.90;;;;;;5097355;27;20046;-44
2022/12/27 07:56:14;;;;;;;20.85;5.78;;;2.90;99.90;;;;;;5118403;27;20039;-48
2022/12/27 07:58:42;;;;;;;15.02;3.15;;;2.90;99.90;;;;;;5109456;27;20058;-47
2022/12/27 08:01:09;;;;;;;13.77;3.35;;;2.90;99.90;;;;;;5110831;27;20472;-47
2022/12/27 08:03:35;;;;;;;12.93;3.58;;;3.00;99.90;;;;;;5108362;27;20039;-46
2022/12/27 08:06:01;;;;;;;18.42;3.95;;;2.90;99.90;;;;;;5111865;27;20391;-45
2022/12/27 08:08:39;;;;;;;18.23;3.83;;;2.90;99.90;;;;;;5117032;27;20096;-46
2022/12/27 08:11:05;;;;;;;19.00;3.47;;;2.80;99.90;;;;;;5111293;27;20043;-47
2022/12/27 08:13:31;;;;;;;16.08;3.85;;;2.90;99.90;;;;;;5116738;27;20481;-45
2022/12/27 08:15:57;;;;;;;16.42;3.50;;;2.90;99.90;;;;;;5111917;27;21254;-48
2022/12/27 08:18:22;;;;;;;16.73;4.60;;;2.90;99.90;;;;;;5111512;27;20043;-45
2022/12/27 08:20:48;;;;;;;15.23;4.07;;;2.90;99.90;;;;;;5094504;27;20137;-48
2022/12/27 08:23:14;;;;;;;27.27;5.57;;;2.90;99.90;;;;;;5111427;27;20158;-46
2022/12/27 08:25:40;;;;;;;16.98;4.80;;;2.90;99.90;;;;;;5113886;27;20119;-47
2022/12/27 08:28:09;;;;;;;18.42;4.97;;;2.90;99.90;;;;;;5118118;27;20483;-48
2022/12/27 08:30:35;;;;;;;17.33;4.60;;;2.90;99.90;;;;;;5094647;27;20050;-46
2022/12/27 08:33:02;;;;;;;26.65;8.27;;;2.90;99.90;;;;;;5107511;27;20296;-44
2022/12/27 08:35:27;;;;;;;18.90;5.72;;;2.90;99.90;;;;;;5115235;27;20323;-47
2022/12/27 08:37:53;;;;;;;15.98;3.80;;;3.00;99.90;;;;;;5109112;27;20571;-45
2022/12/27 08:40:19;;;;;;;18.02;4.30;;;2.90;99.90;;;;;;5112028;27;20452;-47
2022/12/27 08:42:45;;;;;;;18.92;3.85;;;2.90;99.90;;;;;;5096624;27;20047;-48
2022/12/27 08:45:11;;;;;;;18.20;4.18;;;3.00;99.90;;;;;;5115543;27;20455;-48
2022/12/27 08:47:36;;;;;;;17.23;4.15;;;3.10;99.90;;;;;;5111322;27;20039;-46
2022/12/27 08:50:02;;;;;;;14.27;3.53;;;3.00;99.90;;;;;;5116390;27;20035;-44
2022/12/27 08:52:28;;;;;;;14.50;3.70;;;3.00;99.90;;;;;;5113556;27;20042;-48
2022/12/27 08:54:54;;;;;;;18.77;3.83;;;3.10;99.90;;;;;;5119821;27;20546;-48
2022/12/27 08:57:19;;;;;;;16.90;3.67;;;3.00;99.90;;;;;;5116148;27;20125;-47
2022/12/27 08:59:45;;;;;;;19.42;3.78;;;3.20;99.90;;;;;;5133557;27;20050;-44
2022/12/27 09:02:13;;;;;;;10.23;3.17;;;3.20;99.90;;;;;;5118766;27;20486;-44
2022/12/27 09:04:38;;;;;;;13.18;3.40;;;3.30;99.90;;;;;;5118924;27;20047;-45
2022/12/27 09:07:04;;;;;;;13.82;3.28;;;3.40;99.90;;;;;;5092595;27;20503;-49
2022/12/27 09:09:30;;;;;;;14.50;3.70;;;3.40;99.90;;;;;;5093023;27;20175;-48
2022/12/27 09:11:55;;;;;;;15.48;3.35;;;3.50;99.90;;;;;;5103023;27;20119;-49
2022/12/27 09:14:21;;;;;;;12.25;3.78;;;3.60;99.90;;;;;;5107575;27;20126;-46
2022/12/27 09:16:47;;;;;;;18.13;4.07;;;3.60;99.90;;;;;;5091671;27;20051;-44
2022/12/27 09:19:12;;;;;;;16.08;3.65;;;3.60;99.90;;;;;;5105512;27;20054;-48
2022/12/27 09:21:40;;;;;;;12.52;3.63;;;3.70;99.90;;;;;;5115681;27;20492;-46
2022/12/27 09:24:06;;;;;;;19.67;3.42;;;3.70;99.90;;;;;;5108053;27;20070;-46
2022/12/27 09:26:32;;;;;;;13.13;3.35;;;3.80;99.90;;;;;;5108177;27;20043;-44
2022/12/27 09:28:58;;;;;;;14.52;3.42;;;3.80;99.90;;;;;;5110423;27;20054;-45
2022/12/27 09:31:25;;;;;;;18.77;3.22;;;3.80;99.90;;;;;;5109802;27;20043;-45
2022/12/27 09:33:52;;;;;;;16.20;3.83;;;3.70;99.90;;;;;;5112499;27;20437;-48
2022/12/27 09:36:20;;;;;;;13.55;4.05;;;3.80;99.90;;;;;;5113409;27;20027;-44
2022/12/27 09:38:47;;;;;;;13.93;3.97;;;3.70;99.90;;;;;;5108386;27;20079;-46
2022/12/27 09:41:24;;;;;;;11.82;3.90;;;3.70;99.90;;;;;;5111879;27;20381;-44
2022/12/27 09:44:01;;;;;;;18.45;4.28;;;3.60;99.90;;;;;;5113761;27;20142;-50
2022/12/27 09:46:35;;;;;;;17.60;3.92;;;3.60;99.90;;;;;;5108510;27;20062;-45
2022/12/27 09:49:02;;;;;;;20.20;3.92;;;3.60;99.90;;;;;;5113285;27;20050;-46
2022/12/27 09:51:49;;;;;;;17.58;4.38;;;3.60;99.90;;;;;;5110002;27;20047;-49
2022/12/27 09:54:25;;;;;;;18.92;3.85;;;3.70;99.90;;;;;;5079755;27;20134;-50
2022/12/27 09:56:51;;;;;;;13.45;3.47;;;3.70;99.90;;;;;;5117009;27;20075;-46
2022/12/27 09:59:26;;;;;;;13.77;4.20;;;3.70;99.90;;;;;;5111783;27;20038;-45
2022/12/27 10:01:52;;;;;;;20.60;3.85;;;3.80;99.90;;;;;;5111934;27;20039;-45
2022/12/27 10:04:18;;;;;;;17.33;3.70;;;3.80;99.90;;;;;;5105852;27;20194;-47
2022/12/27 10:06:47;;;;;;;16.88;3.90;;;3.90;99.90;;;;;;5091349;27;20043;-46
2022/12/27 10:09:22;;;;;;;15.98;3.80;;;4.00;99.90;;;;;;5106698;27;20046;-46
2022/12/27 10:11:47;;;;;;;13.85;3.20;;;4.00;99.90;;;;;;5109425;27;20043;-44
2022/12/27 10:14:19;;;;;;;16.83;3.30;;;4.10;99.90;;;;;;5107820;27;20043;-45
2022/12/27 10:17:12;;;;;;;12.25;3.28;;;4.20;99.90;;;;;;5104802;27;20047;-44
2022/12/27 10:19:42;;;;;;;17.95;3.78;;;4.10;99.90;;;;;;5113016;27;20483;-44
2022/12/27 10:22:31;;;;;;;14.95;3.35;;;4.20;99.90;;;;;;5111388;27;20057;-47
2022/12/27 10:25:01;;;;;;;12.50;2.85;;;4.30;99.90;;;;;;5010909;28;20044;-45
2022/12/27 10:27:28;;;;;;;13.48;3.05;;;4.50;99.90;;;;;;5010060;28;20060;-44
2022/12/27 10:29:56;;;;;;;12.15;3.53;;;4.60;99.90;;;;;;5004119;28;20063;-47
2022/12/27 10:32:22;;;;;;;12.50;2.95;;;4.70;99.90;;;;;;4997438;28;20058;-45
2022/12/27 10:34:55;;;;;;;14.35;3.95;;;4.60;99.90;;;;;;5006006;28;20077;-47
2022/12/27 10:37:21;;;;;;;15.13;3.35;;;4.70;99.90;;;;;;5008803;28;20418;-48
2022/12/27 10:39:47;;;;;;;12.15;2.45;;;4.80;99.90;;;;;;4997945;28;20057;-45
2022/12/27 10:42:31;;;;;;;15.48;4.40;;;4.90;99.90;;;;;;5016543;28;20062;-47
2022/12/27 10:45:15;;;;;;;;;;;5.00;99.90;;;;;;5015541;28;20045;-47
2022/12/27 10:47:40;;;;;;;14.55;3.53;;;5.00;99.90;;;;;;4995015;28;19983;-45
2022/12/27 10:50:12;;;;;;;13.77;3.20;;;4.90;99.90;;;;;;5008086;28;20555;-47
2022/12/27 10:52:38;;;;;;;12.95;3.75;;;4.90;99.90;;;;;;5015849;28;20045;-47
2022/12/27 10:55:04;;;;;;;16.80;3.83;;;4.90;99.90;;;;;;5030158;28;20668;-48
2022/12/27 10:57:34;;;;;;;13.48;3.10;;;5.00;99.90;;;;;;5019786;28;20080;-48
2022/12/27 11:00:20;;;;;;;15.52;4.30;;;4.90;99.90;;;;;;5028015;28;20537;-44
2022/12/27 11:02:54;;;;;;;19.25;4.10;;;5.00;99.90;;;;;;5102841;27;20042;-45
2022/12/27 11:05:31;;;;;;;14.75;2.75;;;5.10;99.90;;;;;;5122875;27;20385;-46
2022/12/27 11:07:56;;;;;;;12.15;3.47;;;5.10;99.90;;;;;;5120104;27;20047;-47
2022/12/27 11:10:25;;;;;;;16.92;3.10;;;5.10;99.90;;;;;;5110747;27;20533;-46
2022/12/27 11:12:54;;;;;;;13.05;2.72;;;5.20;99.90;;;;;;5093945;27;20043;-45
2022/12/27 11:15:20;;;;;;;13.63;3.10;;;5.30;99.90;;;;;;5091182;27;20050;-48
2022/12/27 11:17:49;;;;;;;12.65;2.95;;;5.50;99.90;;;;;;5110084;27;20124;-47
2022/12/27 11:20:22;;;;;;;13.48;2.88;;;5.60;99.90;;;;;;5107111;27;20085;-47
2022/12/27 11:23:01;;;;;;;8.63;2.38;;;5.70;99.90;;;;;;5108707;27;20062;-47
2022/12/27 11:25:28;;;;;;;16.00;3.65;;;5.70;99.90;;;;;;5106330;27;20421;-47
2022/12/27 11:28:05;;;;;;;12.82;3.42;;;5.60;99.90;;;;;;5111544;27;20444;-47
2022/12/27 11:30:39;;;;;;;13.77;2.72;;;5.60;99.90;;;;;;5093186;27;20106;-46
2022/12/27 11:33:38;;;;;;;11.77;2.38;;;5.50;99.90;;;;;;5108945;27;20039;-50
2022/12/27 11:36:06;;;;;;;11.40;3.03;;;5.40;99.90;;;;;;5071647;27;20514;-46
2022/12/27 11:38:35;;;;;;;17.42;3.67;;;5.40;99.90;;;;;;5098262;27;20081;-46
2022/12/27 11:41:03;;;;;;;13.93;2.80;;;5.40;99.90;;;;;;5100079;27;20047;-48
2022/12/27 11:43:53;;;;;;;12.88;3.30;;;5.40;99.90;;;;;;5108293;27;20505;-45
2022/12/27 11:46:37;;;;;;;13.70;3.10;;;5.50;99.90;;;;;;5093081;27;20062;-47
2022/12/27 11:49:08;;;;;;;8.70;2.50;;;5.50;99.90;;;;;;5107784;27;20064;-46
2022/12/27 11:51:48;;;;;;;17.65;3.45;;;5.60;99.90;;;;;;5105794;27;20337;-45
2022/12/27 11:54:16;;;;;;;15.15;3.65;;;5.60;99.90;;;;;;5104703;27;20070;-48
2022/12/27 11:56:53;;;;;;;17.40;3.33;;;5.70;99.90;;;;;;5098675;27;20115;-45
2022/12/27 11:59:43;;;;;;;9.25;2.70;;;5.70;99.90;;;;;;5105281;27;20163;-49
2022/12/27 12:02:36;;;;;;;11.25;3.28;;;5.70;99.90;;;;;;5085376;27;20528;-49
2022/12/27 12:05:29;;;;;;;13.98;3.15;;;5.70;99.90;;;;;;5067518;27;20557;-46
2022/12/27 12:08:32;;;;;;;17.33;3.17;;;5.70;99.90;;;;;;5108499;27;20050;-47
2022/12/27 12:11:19;;;;;;;14.10;3.40;;;5.70;99.90;;;;;;5105300;27;20051;-45
2022/12/27 12:14:00;;;;;;;11.55;2.40;;;5.80;99.90;;;;;;5109744;27;20499;-46
2022/12/27 12:16:41;;;;;;;8.18;2.45;;;5.70;99.90;;;;;;5090314;27;20605;-47
2022/12/27 12:19:42;;;;;;;13.05;2.97;;;5.70;99.90;;;;;;5102552;27;20505;-45
2022/12/27 12:22:28;;;;;;;13.50;3.25;;;5.70;99.90;;;;;;5103820;27;20047;-44
2022/12/27 12:25:16;;;;;;;15.13;3.47;;;5.80;99.90;;;;;;5099029;27;20126;-47
2022/12/27 12:27:50;;;;;;;14.88;2.78;;;5.80;99.90;;;;;;5102968;27;20142;-46
2022/12/27 12:30:37;;;;;;;13.38;2.40;;;5.80;99.90;;;;;;5090361;27;20164;-47
2022/12/27 12:33:15;;;;;;;18.02;3.58;;;5.80;99.90;;;;;;5107824;27;20807;-44
2022/12/27 12:35:46;;;;;;;17.98;3.78;;;5.80;99.90;;;;;;5088533;27;20039;-49
2022/12/27 12:38:26;;;;;;;12.75;3.65;;;5.90;99.90;;;;;;5106554;27;20061;-43
2022/12/27 12:40:55;;;;;;;20.23;3.83;;;5.90;99.90;;;;;;5086890;27;20043;-46
2022/12/27 12:43:33;;;;;;;11.95;3.10;;;5.90;99.90;;;;;;5111899;27;20050;-47
2022/12/27 12:46:26;;;;;;;15.43;3.05;;;5.90;99.90;;;;;;5098893;27;20089;-49
2022/12/27 12:49:43;;;;;;;13.48;3.10;;;6.00;99.90;;;;;;5109383;27;20050;-46
2022/12/27 12:52:29;;;;;;;10.60;2.85;;;6.10;99.90;;;;;;5010823;28;20052;-47
2022/12/27 12:55:21;;;;;;;10.38;3.05;;;6.10;99.90;;;;;;5027802;28;20061;-47
2022/12/27 12:58:11;;;;;;;13.57;4.30;;;6.20;99.90;;;;;;5021023;28;20064;-47
2022/12/27 13:00:49;;;;;;;17.55;4.05;;;6.10;99.90;;;;;;5022812;28;20713;-44
2022/12/27 13:03:51;;;;;;;16.85;3.78;;;6.20;99.90;;;;;;5027599;28;20467;-44
2022/12/27 13:06:37;;;;;;;14.32;3.70;;;6.10;99.90;;;;;;5021041;28;20064;-50
2022/12/27 13:09:26;;;;;;;14.77;4.68;;;6.10;99.90;;;;;;5017894;28;20483;-49
2022/12/27 13:11:56;;;;;;;13.50;3.55;;;6.10;99.90;;;;;;5028910;28;20053;-48
2022/12/27 13:14:40;;;;;;;14.05;4.97;;;6.00;99.90;;;;;;5028206;28;20063;-47
2022/12/27 13:17:14;;;;;;;13.98;4.70;;;6.00;99.90;;;;;;5027263;28;20048;-46
2022/12/27 13:20:02;;;;;;;21.13;5.60;;;6.00;99.90;;;;;;5021396;28;20556;-46
2022/12/27 13:22:39;;;;;;;21.90;6.00;;;6.00;99.90;;;;;;5024406;28;20507;-44
2022/12/27 13:25:30;;;;;;;14.77;5.15;;;6.10;99.90;;;;;;5013115;27;20411;-46
2022/12/27 13:28:22;;;;;;;13.18;5.35;;;6.10;99.90;;;;;;5104162;27;20122;-46
2022/12/27 13:30:55;;;;;;;15.75;5.00;;;6.20;99.90;;;;;;5105613;27;20091;-46
2022/12/27 13:33:36;;;;;;;14.20;6.72;;;6.20;99.90;;;;;;5110447;27;20051;-44
2022/12/27 13:36:01;;;;;;;12.35;5.25;;;6.20;99.90;;;;;;5105057;27;20047;-48
2022/12/27 13:38:42;;;;;;;14.60;6.13;;;6.10;99.90;;;;;;5090671;27;20051;-48
2022/12/27 13:41:40;;;;;;;15.57;5.90;;;6.20;99.90;;;;;;5106995;27;20035;-45
2022/12/27 13:44:21;;;;;;;16.13;6.00;;;6.10;99.90;;;;;;5020136;28;20268;-44
2022/12/27 13:46:53;;;;;;;16.30;5.55;;;6.20;99.90;;;;;;5011559;28;20052;-46
2022/12/27 13:49:42;;;;;;;14.05;5.43;;;6.10;99.90;;;;;;5018237;28;20164;-48
2022/12/27 13:52:08;;;;;;;16.73;5.70;;;6.10;99.90;;;;;;5014199;28;20045;-46
2022/12/27 13:54:48;;;;;;;17.08;5.38;;;6.00;99.90;;;;;;5014003;28;20194;-49
2022/12/27 13:57:35;;;;;;;14.60;5.28;;;6.00;99.90;;;;;;5002226;28;20467;-46
2022/12/27 14:00:17;;;;;;;13.50;6.25;;;6.00;99.90;;;;;;5012032;28;20049;-47
2022/12/27 14:03:14;;;;;;;13.38;5.63;;;5.90;99.90;;;;;;5020795;28;20045;-46
2022/12/27 14:05:48;;;;;;;20.42;5.45;;;5.90;99.90;;;;;;5018040;28;20136;-50
2022/12/27 14:08:52;;;;;;;14.90;5.75;;;5.90;99.90;;;;;;5015516;28;20049;-48
2022/12/27 14:11:45;;;;;;;15.68;5.47;;;5.90;99.90;;;;;;4960800;28;20294;-46
2022/12/27 14:14:15;;;;;;;22.30;6.70;;;5.90;99.90;;;;;;4958544;28;20148;-45
2022/12/27 14:17:19;;;;;;;17.27;6.15;;;5.80;99.90;;;;;;4958434;28;20063;-48
2022/12/27 14:20:20;;;;;;;16.17;6.18;;;5.80;99.90;;;;;;4957577;28;20064;-45
2022/12/27 14:23:04;;;;;;;16.92;6.82;;;5.80;99.90;;;;;;4978910;28;20065;-45
2022/12/27 14:25:35;;;;;;;16.90;8.32;;;5.60;99.90;;;;;;4979417;28;20189;-47
2022/12/27 14:28:12;;;;;;;15.98;6.88;;;5.60;99.90;;;;;;4973809;28;20057;-46
2022/12/27 14:30:49;;;;;;;17.17;7.65;;;5.60;99.90;;;;;;4971854;28;20474;-48
2022/12/27 14:33:59;;;;;;;19.52;8.68;;;5.60;99.90;;;;;;4974650;28;20184;-47
2022/12/27 14:36:45;;;;;;;17.42;9.38;;;5.50;99.90;;;;;;4941652;28;20111;-44
2022/12/27 14:39:45;;;;;;;15.95;8.55;;;5.50;99.90;;;;;;4950427;28;20074;-45
2022/12/27 14:42:19;;;;;;;16.55;9.30;;;5.50;99.90;;;;;;4950466;28;20960;-47
2022/12/27 14:45:22;;;;;;;18.90;11.07;;;5.50;99.90;;;;;;4948759;28;20217;-45
2022/12/27 14:48:29;;;;;;;17.70;10.60;;;5.40;99.90;;;;;;4960815;28;20111;-47
2022/12/27 14:51:10;;;;;;;20.88;11.25;;;5.50;99.90;;;;;;4944180;28;21033;-44
2022/12/27 14:54:12;;;;;;;24.33;13.32;;;5.60;99.90;;;;;;4947323;28;20055;-46
2022/12/27 14:57:17;;;;;;;23.02;11.75;;;5.60;99.90;;;;;;4960016;28;20073;-47
2022/12/27 15:00:03;;;;;;;18.48;12.35;;;5.60;99.90;;;;;;5011115;28;20071;-46
2022/12/27 15:02:50;;;;;;;19.30;11.65;;;5.60;99.90;;;;;;5004638;28;20155;-48